Time;durP1;ratioP1;P1;durP2;ratioP2;P2;SDS_P1;SDS_P2;PMS_P1;PMS_P2;Temp;Humidity;BMP_temperature;BMP_pressure;BME280_temperature;BME280_humidity;BME280_pressure;Samples;Min_cycle;Max_cycle;Signal;HPM_P1;HPM_P2
2021/09/22 00:01:31;;;;;;;14.93;10.97;;;;;;;12.36;60.84;97811.16;5094441;28;20200;-67
2021/09/22 00:03:57;;;;;;;14.10;11.60;;;;;;;12.36;61.08;97807.72;5094472;28;20213;-66
2021/09/22 00:06:23;;;;;;;14.70;11.43;;;;;;;12.32;60.75;97803.72;5093671;28;20265;-63
2021/09/22 00:08:49;;;;;;;13.40;11.17;;;;;;;12.30;61.07;97814.41;5093635;28;20206;-66
2021/09/22 00:11:14;;;;;;;13.43;10.93;;;;;;;12.23;61.35;97808.06;5094245;28;20411;-66
2021/09/22 00:13:40;;;;;;;14.57;12.07;;;;;;;12.19;61.64;97810.19;5093922;28;20612;-66
2021/09/22 00:16:05;;;;;;;12.47;11.17;;;;;;;12.16;61.45;97804.41;5094325;28;20655;-66
2021/09/22 00:18:32;;;;;;;14.70;11.30;;;;;;;11.92;62.57;97797.88;5093521;28;20201;-66
2021/09/22 00:20:58;;;;;;;13.20;10.90;;;;;;;11.70;63.06;97809.56;5093240;28;20692;-65
2021/09/22 00:23:23;;;;;;;12.57;11.17;;;;;;;11.64;63.58;97805.72;5092107;28;20424;-66
2021/09/22 00:25:49;;;;;;;14.00;11.10;;;;;;;11.71;62.83;97798.94;5092107;28;20822;-65
2021/09/22 00:28:14;;;;;;;12.87;11.17;;;;;;;11.73;62.78;97796.16;5093136;28;20209;-67
2021/09/22 00:30:40;;;;;;;14.10;11.30;;;;;;;11.73;62.49;97793.53;5093671;28;20194;-67
2021/09/22 00:33:06;;;;;;;12.97;10.67;;;;;;;11.76;62.73;97794.06;5094088;28;20227;-67
2021/09/22 00:35:32;;;;;;;13.80;11.73;;;;;;;11.65;62.80;97796.88;5093544;28;20185;-65
2021/09/22 00:37:58;;;;;;;15.07;12.20;;;;;;;11.60;63.48;97796.47;5092771;28;20438;-66
2021/09/22 00:40:25;;;;;;;15.10;11.97;;;;;;;11.52;63.77;97799.84;5093680;28;20516;-66
2021/09/22 00:42:50;;;;;;;14.63;11.47;;;;;;;11.69;63.19;97803.50;5092893;28;20427;-66
2021/09/22 00:45:17;;;;;;;13.47;11.70;;;;;;;11.67;63.34;97800.19;5093664;28;20232;-66
2021/09/22 00:47:43;;;;;;;14.00;11.60;;;;;;;11.67;63.29;97800.19;5094972;28;20201;-66
2021/09/22 00:50:10;;;;;;;15.30;11.87;;;;;;;11.64;63.39;97793.44;5100387;28;20801;-68
2021/09/22 00:52:37;;;;;;;13.60;11.80;;;;;;;11.59;63.48;97795.66;5101152;28;20420;-68
2021/09/22 00:55:04;;;;;;;18.33;12.77;;;;;;;11.53;63.57;97793.59;5100123;28;20461;-65
2021/09/22 00:57:30;;;;;;;13.40;11.97;;;;;;;11.54;63.50;97795.25;5098562;28;20424;-66
2021/09/22 00:59:55;;;;;;;16.13;12.10;;;;;;;11.50;63.53;97794.72;5094063;28;20594;-65
2021/09/22 01:02:21;;;;;;;15.70;12.10;;;;;;;11.41;64.34;97789.50;5093256;28;20420;-66
2021/09/22 01:04:47;;;;;;;12.50;11.20;;;;;;;11.50;63.69;97794.72;5089167;28;20232;-66
2021/09/22 01:07:14;;;;;;;18.00;12.37;;;;;;;11.50;63.83;97794.72;5091616;28;20269;-66
2021/09/22 01:09:41;;;;;;;14.70;12.37;;;;;;;11.38;64.08;97795.88;5091408;28;20205;-63
2021/09/22 01:12:07;;;;;;;20.50;12.50;;;;;;;11.41;63.81;97802.63;5092340;28;20540;-66
2021/09/22 01:14:33;;;;;;;15.83;11.80;;;;;;;11.34;63.93;97795.31;5095631;28;20432;-64
2021/09/22 01:16:59;;;;;;;14.63;12.40;;;;;;;11.44;64.17;97800.56;5092684;28;20424;-64
2021/09/22 01:19:28;;;;;;;14.47;12.50;;;;;;;11.41;63.88;97806.09;5092445;28;20945;-65
2021/09/22 01:21:55;;;;;;;15.37;13.23;;;;;;;11.39;64.04;97801.94;5092413;28;20268;-65
2021/09/22 01:24:21;;;;;;;16.40;13.03;;;;;;;11.28;64.33;97797.69;5092169;28;20789;-66
2021/09/22 01:26:48;;;;;;;17.57;12.70;;;;;;;11.33;64.41;97805.97;5093080;28;20827;-66
2021/09/22 01:29:14;;;;;;;14.53;11.93;;;;;;;11.34;64.20;97808.44;5083428;28;20494;-65
2021/09/22 01:31:40;;;;;;;18.70;12.83;;;;;;;11.33;64.10;97808.59;5092043;28;20459;-66
2021/09/22 01:34:08;;;;;;;17.83;12.80;;;;;;;11.30;64.30;97807.06;5091882;28;20189;-65
2021/09/22 01:36:34;;;;;;;15.30;11.90;;;;;;;11.39;63.98;97800.16;5091173;28;20910;-66
2021/09/22 01:38:59;;;;;;;14.70;12.10;;;;;;;11.40;63.76;97804.44;5091358;28;20422;-67
2021/09/22 01:41:25;;;;;;;17.90;14.20;;;;;;;11.33;64.08;97808.59;5091741;28;20601;-66
2021/09/22 01:43:51;;;;;;;22.90;12.60;;;;;;;11.40;63.81;97814.09;5092136;28;20228;-66
2021/09/22 01:46:17;;;;;;;13.67;12.00;;;;;;;11.44;63.62;97805.81;5091811;28;20178;-65
2021/09/22 01:48:43;;;;;;;17.70;12.73;;;;;;;11.49;63.42;97808.81;5091380;28;20538;-64
2021/09/22 01:51:10;;;;;;;16.97;12.60;;;;;;;11.46;63.53;97803.03;5091538;28;20300;-67
2021/09/22 01:53:36;;;;;;;15.90;13.70;;;;;;;11.40;63.66;97809.69;5094675;28;20504;-66
2021/09/22 01:56:02;;;;;;;16.37;12.47;;;;;;;11.29;64.10;97812.47;5091558;28;20946;-65
2021/09/22 01:58:29;;;;;;;14.70;11.50;;;;;;;11.37;63.85;97807.31;5091541;28;20469;-64
2021/09/22 02:01:01;;;;;;;21.00;13.20;;;;;;;11.32;63.79;97806.94;5092218;28;20454;-65
2021/09/22 02:03:27;;;;;;;15.13;12.60;;;;;;;11.32;63.61;97802.50;5091715;28;20477;-65
2021/09/22 02:05:52;;;;;;;15.07;11.67;;;;;;;11.33;63.73;97805.97;5090644;28;20424;-66
2021/09/22 02:08:18;;;;;;;15.27;12.00;;;;;;;11.30;64.00;97798.38;5091100;28;21095;-64
2021/09/22 02:10:44;;;;;;;18.90;13.70;;;;;;;11.30;64.21;97801.00;5089782;28;20262;-64
2021/09/22 02:13:10;;;;;;;16.47;12.70;;;;;;;11.31;64.09;97794.78;5091456;28;20178;-63
2021/09/22 02:15:35;;;;;;;20.27;12.90;;;;;;;11.27;64.22;97794.25;5091332;28;20743;-65
2021/09/22 02:18:01;;;;;;;17.53;13.67;;;;;;;11.28;64.22;97790.63;5091083;28;20558;-64
2021/09/22 02:20:27;;;;;;;19.13;13.07;;;;;;;11.35;64.15;97781.25;5091210;28;20198;-64
2021/09/22 02:22:52;;;;;;;16.40;13.17;;;;;;;11.40;64.11;97783.44;5091127;28;20188;-63
2021/09/22 02:25:18;;;;;;;22.07;13.60;;;;;;;11.30;64.00;97787.88;5091358;28;20555;-63
2021/09/22 02:27:44;;;;;;;20.40;13.60;;;;;;;11.29;64.51;97789.66;5090893;28;20236;-64
2021/09/22 02:30:13;;;;;;;18.43;12.97;;;;;;;11.26;64.56;97791.75;5090986;28;20436;-65
2021/09/22 02:32:40;;;;;;;18.10;13.70;;;;;;;11.30;64.44;97787.88;5091187;28;20210;-65
2021/09/22 02:35:07;;;;;;;15.10;12.40;;;;;;;11.35;64.41;97786.47;5090918;28;20427;-63
2021/09/22 02:37:33;;;;;;;16.27;14.00;;;;;;;11.42;64.07;97783.28;5089972;28;21025;-64
2021/09/22 02:39:59;;;;;;;20.30;14.27;;;;;;;11.42;63.60;97781.50;5090707;28;20546;-63
2021/09/22 02:42:24;;;;;;;17.13;13.73;;;;;;;11.38;63.79;97785.38;5091390;28;20431;-64
2021/09/22 02:44:50;;;;;;;20.80;13.53;;;;;;;11.15;64.50;97787.53;5090835;28;20268;-64
2021/09/22 02:47:16;;;;;;;17.53;14.50;;;;;;;11.15;64.71;97788.34;5090660;28;20238;-63
2021/09/22 02:49:42;;;;;;;18.30;13.70;;;;;;;11.08;65.07;97779.38;5090766;28;20523;-66
2021/09/22 02:52:08;;;;;;;16.80;13.93;;;;;;;11.11;64.85;97776.47;5090813;28;22021;-64
2021/09/22 02:54:34;;;;;;;17.63;13.87;;;;;;;11.19;64.87;97768.72;5089904;28;20424;-63
2021/09/22 02:56:59;;;;;;;18.63;14.20;;;;;;;11.22;64.56;97772.84;5090592;28;20193;-66
2021/09/22 02:59:25;;;;;;;20.63;14.40;;;;;;;11.19;64.61;97762.63;5091552;28;20221;-64
2021/09/22 03:01:51;;;;;;;18.43;14.50;;;;;;;11.07;64.88;97772.47;5091387;28;20322;-65
2021/09/22 03:04:16;;;;;;;21.80;14.63;;;;;;;10.87;65.48;97775.13;5090816;28;20181;-65
2021/09/22 03:06:42;;;;;;;20.60;13.00;;;;;;;10.86;65.92;97770.84;5084600;28;20580;-65
2021/09/22 03:09:08;;;;;;;23.30;14.83;;;;;;;10.89;65.55;97777.63;5090557;28;20209;-63
2021/09/22 03:11:33;;;;;;;20.50;15.17;;;;;;;10.83;65.67;97771.16;5089441;28;20181;-65
2021/09/22 03:13:59;;;;;;;18.73;15.00;;;;;;;10.91;65.86;97779.13;5093350;28;20180;-63
2021/09/22 03:16:25;;;;;;;18.00;13.77;;;;;;;11.00;65.50;97774.00;5088322;28;20181;-63
2021/09/22 03:18:50;;;;;;;18.37;14.23;;;;;;;11.03;65.47;97771.09;5090275;28;20192;-64
2021/09/22 03:21:16;;;;;;;21.73;14.93;;;;;;;11.07;65.39;97768.06;5090386;28;20234;-64
2021/09/22 03:23:42;;;;;;;19.60;14.93;;;;;;;11.13;64.99;97771.91;5094280;28;20177;-64
2021/09/22 03:26:07;;;;;;;20.90;15.20;;;;;;;11.15;64.93;97777.84;5077739;28;20244;-65
2021/09/22 03:28:33;;;;;;;19.77;14.20;;;;;;;11.16;64.56;97782.13;5093584;28;20451;-64
2021/09/22 03:30:59;;;;;;;19.87;14.77;;;;;;;11.15;64.63;97763.91;5093405;28;20575;-65
2021/09/22 03:33:24;;;;;;;18.07;14.20;;;;;;;11.05;64.89;97772.59;5094313;28;20283;-63
2021/09/22 03:35:50;;;;;;;20.40;15.57;;;;;;;11.00;65.28;97776.63;5093865;28;20182;-64
2021/09/22 03:38:15;;;;;;;21.93;14.63;;;;;;;11.06;64.88;97770.81;5092523;28;20189;-64
2021/09/22 03:40:41;;;;;;;17.63;13.73;;;;;;;11.02;65.17;97775.53;5094022;28;20201;-64
2021/09/22 03:43:07;;;;;;;18.80;14.20;;;;;;;11.00;65.04;97782.72;5087410;28;20296;-64
2021/09/22 03:45:32;;;;;;;19.17;13.00;;;;;;;11.03;64.85;97787.66;5093670;28;20196;-64
2021/09/22 03:47:58;;;;;;;22.17;14.77;;;;;;;11.08;64.77;97795.13;5093600;28;20201;-64
2021/09/22 03:50:24;;;;;;;20.27;14.30;;;;;;;11.13;64.52;97797.31;5093595;28;20267;-66
2021/09/22 03:52:49;;;;;;;18.00;14.20;;;;;;;11.15;64.49;97806.69;5096323;28;20182;-63
2021/09/22 03:55:15;;;;;;;18.70;14.43;;;;;;;11.16;64.34;97797.00;5093403;28;20529;-65
2021/09/22 03:57:41;;;;;;;19.60;14.70;;;;;;;11.13;64.45;97802.56;5089083;28;20182;-65
2021/09/22 04:00:07;;;;;;;18.07;13.90;;;;;;;11.11;64.31;97802.69;5093361;28;20213;-65
2021/09/22 04:02:32;;;;;;;18.80;14.57;;;;;;;11.05;64.34;97804.09;5093836;28;20276;-64
2021/09/22 04:04:58;;;;;;;18.57;15.60;;;;;;;11.02;64.40;97801.75;5093436;28;20416;-65
2021/09/22 04:07:24;;;;;;;19.77;14.83;;;;;;;11.01;64.68;97804.50;5091881;28;20185;-65
2021/09/22 04:09:49;;;;;;;17.00;14.30;;;;;;;11.00;65.10;97802.84;5093804;28;20201;-62
2021/09/22 04:12:15;;;;;;;19.60;15.40;;;;;;;10.89;65.76;97802.03;5093832;28;20178;-65
2021/09/22 04:14:40;;;;;;;18.80;14.63;;;;;;;10.93;65.48;97804.41;5093437;28;20178;-65
2021/09/22 04:17:06;;;;;;;21.40;16.23;;;;;;;10.88;65.55;97799.56;5093220;28;20216;-63
2021/09/22 04:19:34;;;;;;;20.70;14.83;;;;;;;10.97;65.21;97803.97;5093465;28;20280;-65
2021/09/22 04:22:00;;;;;;;21.23;16.10;;;;;;;10.98;65.33;97804.78;5091950;28;20719;-65
2021/09/22 04:24:26;;;;;;;23.20;16.50;;;;;;;11.05;65.37;97804.09;5093815;28;20419;-64
2021/09/22 04:26:52;;;;;;;22.63;16.37;;;;;;;11.04;65.73;97804.25;5085202;28;20428;-65
2021/09/22 04:29:18;;;;;;;23.53;15.93;;;;;;;11.07;65.40;97809.22;5093503;28;20213;-66
2021/09/22 04:31:43;;;;;;;20.00;15.30;;;;;;;11.07;65.35;97811.84;5093626;28;20777;-66
2021/09/22 04:34:09;;;;;;;23.20;16.60;;;;;;;11.05;65.61;97806.72;5093739;28;20182;-65
2021/09/22 04:36:35;;;;;;;23.93;16.20;;;;;;;11.06;65.71;97808.38;5093486;28;20201;-66
2021/09/22 04:39:01;;;;;;;23.60;15.70;;;;;;;11.09;65.43;97801.19;5093809;28;20182;-65
2021/09/22 04:41:26;;;;;;;24.20;17.23;;;;;;;11.07;64.97;97798.72;5092890;28;20579;-66
2021/09/22 04:43:52;;;;;;;22.63;15.50;;;;;;;11.05;65.13;97800.66;5092724;28;20432;-65
2021/09/22 04:46:17;;;;;;;23.30;15.63;;;;;;;11.02;65.18;97816.66;5092875;28;20201;-65
2021/09/22 04:48:43;;;;;;;22.03;16.90;;;;;;;11.02;65.15;97808.78;5092636;28;20207;-65
2021/09/22 04:51:09;;;;;;;22.70;16.00;;;;;;;11.03;65.20;97807.81;5091568;28;20243;-65
2021/09/22 04:53:35;;;;;;;20.97;15.80;;;;;;;11.01;65.03;97799.25;5091680;28;20455;-66
2021/09/22 04:56:00;;;;;;;21.10;15.20;;;;;;;10.98;64.93;97799.53;5086297;28;20281;-64
2021/09/22 04:58:26;;;;;;;25.00;16.37;;;;;;;10.94;65.31;97796.38;5090481;28;20174;-65
2021/09/22 05:00:52;;;;;;;23.37;17.13;;;;;;;10.95;66.00;97797.22;5090975;28;20534;-64
2021/09/22 05:03:18;;;;;;;24.67;17.20;;;;;;;10.97;66.16;97798.72;5093131;28;20507;-65
2021/09/22 05:05:44;;;;;;;27.43;17.80;;;;;;;10.90;66.24;97808.94;5074647;28;20183;-67
2021/09/22 05:08:10;;;;;;;23.30;16.10;;;;;;;10.94;66.13;97806.06;5090434;28;20202;-64
2021/09/22 05:10:36;;;;;;;27.50;17.30;;;;;;;10.99;66.16;97801.19;5090923;28;20451;-66
2021/09/22 05:13:02;;;;;;;29.30;17.17;;;;;;;11.02;65.94;97816.66;5094751;28;20663;-63
2021/09/22 05:15:28;;;;;;;28.30;17.20;;;;;;;11.01;65.46;97805.34;5092414;28;20686;-66
2021/09/22 05:17:54;;;;;;;37.33;17.57;;;;;;;11.04;65.50;97804.25;5091972;28;20420;-65
2021/09/22 05:20:21;;;;;;;25.67;17.27;;;;;;;11.02;65.48;97804.38;5091208;28;20217;-64
2021/09/22 05:22:46;;;;;;;26.70;17.40;;;;;;;11.05;65.64;97811.94;5091099;28;20977;-65
2021/09/22 05:25:12;;;;;;;30.40;18.77;;;;;;;11.06;65.77;97818.03;5087168;28;20512;-66
2021/09/22 05:27:37;;;;;;;29.10;18.33;;;;;;;11.10;65.49;97815.97;5086761;28;20224;-64
2021/09/22 05:30:04;;;;;;;29.30;18.30;;;;;;;11.06;65.56;97808.38;5091724;28;20566;-66
2021/09/22 05:32:29;;;;;;;26.57;18.80;;;;;;;11.10;65.80;97811.53;5092376;28;20210;-66
2021/09/22 05:34:55;;;;;;;32.80;17.63;;;;;;;11.14;65.72;97809.47;5089643;28;20463;-66
2021/09/22 05:37:21;;;;;;;29.33;17.90;;;;;;;11.17;65.45;97815.25;5091884;28;20644;-65
2021/09/22 05:39:46;;;;;;;27.00;18.30;;;;;;;11.20;65.97;97814.97;5091952;28;20208;-65
2021/09/22 05:42:12;;;;;;;28.17;19.17;;;;;;;11.26;65.84;97812.75;5091760;28;20269;-65
2021/09/22 05:44:37;;;;;;;31.90;18.30;;;;;;;11.32;65.93;97812.19;5091514;28;20600;-64
2021/09/22 05:47:03;;;;;;;28.13;19.00;;;;;;;11.38;65.86;97814.22;5091905;28;20201;-65
2021/09/22 05:49:29;;;;;;;30.17;20.30;;;;;;;11.47;65.79;97816.00;5091942;28;20597;-65
2021/09/22 05:51:54;;;;;;;29.23;17.13;;;;;;;11.52;65.38;97824.28;5092631;28;20659;-65
2021/09/22 05:54:21;;;;;;;27.40;18.63;;;;;;;11.60;65.12;97818.31;5092660;28;20703;-65
2021/09/22 05:56:48;;;;;;;28.50;18.17;;;;;;;11.68;64.85;97818.41;5094763;28;20191;-63
2021/09/22 05:59:13;;;;;;;26.33;17.43;;;;;;;11.77;64.53;97811.47;5094285;28;20416;-64
2021/09/22 06:01:40;;;;;;;39.13;18.90;;;;;;;11.84;64.46;97817.78;5091928;28;20424;-64
2021/09/22 06:04:05;;;;;;;33.50;18.27;;;;;;;11.97;64.41;97817.47;5091589;28;20192;-64
2021/09/22 06:06:31;;;;;;;29.03;18.03;;;;;;;12.13;64.19;97814.22;5084800;28;20909;-63
2021/09/22 06:08:57;;;;;;;31.93;18.40;;;;;;;12.22;63.94;97819.59;5090855;28;20488;-65
2021/09/22 06:11:22;;;;;;;25.90;17.90;;;;;;;12.39;63.76;97815.31;5091107;28;20667;-65
2021/09/22 06:13:53;;;;;;;40.13;19.37;;;;;;;12.54;63.37;97823.50;5090349;28;20259;-64
2021/09/22 06:16:20;;;;;;;27.30;18.70;;;;;;;12.75;63.05;97816.13;5091238;28;20194;-65
2021/09/22 06:18:45;;;;;;;26.90;17.30;;;;;;;13.01;62.15;97815.34;5089370;28;20507;-63
2021/09/22 06:21:11;;;;;;;26.23;18.67;;;;;;;13.24;62.08;97820.13;5091641;28;20446;-63
2021/09/22 06:23:37;;;;;;;35.20;19.00;;;;;;;13.27;60.68;97819.81;5051405;28;20189;-64
2021/09/22 06:26:03;;;;;;;29.50;18.83;;;;;;;13.28;60.82;97818.84;5090645;28;20186;-65
2021/09/22 06:28:29;;;;;;;27.57;18.67;;;;;;;13.39;60.70;97823.03;5090847;28;20462;-64
2021/09/22 06:30:54;;;;;;;31.47;19.90;;;;;;;13.73;60.02;97818.81;5089444;28;20208;-64
2021/09/22 06:33:20;;;;;;;41.17;21.87;;;;;;;14.10;58.92;97815.00;5091061;28;20177;-64
2021/09/22 06:35:45;;;;;;;33.40;21.07;;;;;;;14.47;58.49;97816.41;5085376;28;20189;-65
2021/09/22 06:38:11;;;;;;;29.67;20.00;;;;;;;14.62;57.59;97821.88;5091058;28;20630;-66
2021/09/22 06:40:37;;;;;;;33.13;20.60;;;;;;;14.70;56.99;97821.09;5090906;28;20225;-67
2021/09/22 06:43:04;;;;;;;30.23;20.03;;;;;;;14.81;56.89;97823.41;5090951;28;20189;-65
2021/09/22 06:45:29;;;;;;;30.47;20.00;;;;;;;14.95;56.61;97816.63;5091096;28;20250;-65
2021/09/22 06:47:55;;;;;;;25.70;18.83;;;;;;;15.05;56.91;97824.38;5091151;28;20826;-64
2021/09/22 06:50:20;;;;;;;25.83;19.40;;;;;;;15.16;55.85;97820.59;5090747;28;20564;-65
2021/09/22 06:52:46;;;;;;;27.20;20.10;;;;;;;15.11;55.40;97815.81;5091012;28;20182;-65
2021/09/22 06:55:12;;;;;;;24.60;18.77;;;;;;;15.20;55.65;97812.19;5090301;28;20781;-65
2021/09/22 06:57:38;;;;;;;26.77;19.40;;;;;;;15.25;55.10;97816.94;5094710;28;20268;-66
2021/09/22 07:00:05;;;;;;;27.30;19.30;;;;;;;15.02;55.33;97830.84;5083198;28;20237;-66
2021/09/22 07:02:31;;;;;;;26.93;17.97;;;;;;;15.15;55.08;97832.16;5096046;28;20427;-67
2021/09/22 07:04:56;;;;;;;25.60;19.23;;;;;;;15.23;54.70;97826.84;5094279;28;20929;-66
2021/09/22 07:07:22;;;;;;;25.23;17.73;;;;;;;15.40;54.25;97827.66;5089407;28;20178;-66
2021/09/22 07:09:48;;;;;;;26.17;18.07;;;;;;;15.39;53.93;97826.00;5092418;28;20198;-65
2021/09/22 07:12:13;;;;;;;24.70;17.87;;;;;;;15.54;54.17;97826.16;5088003;28;20230;-65
2021/09/22 07:14:39;;;;;;;22.60;17.10;;;;;;;15.77;53.39;97834.16;5109177;28;20177;-65
2021/09/22 07:17:04;;;;;;;21.50;17.63;;;;;;;15.80;53.09;97839.09;5110185;28;20268;-65
2021/09/22 07:19:30;;;;;;;27.87;18.10;;;;;;;15.78;52.95;97841.09;5111216;28;20258;-67
2021/09/22 07:21:56;;;;;;;23.87;18.50;;;;;;;15.92;52.56;97846.69;5106116;28;20186;-66
2021/09/22 07:24:21;;;;;;;26.13;17.87;;;;;;;16.04;52.21;97847.16;5092649;28;20178;-64
2021/09/22 07:26:47;;;;;;;27.40;18.37;;;;;;;16.25;51.90;97849.22;5089420;28;20186;-64
2021/09/22 07:29:13;;;;;;;25.77;18.80;;;;;;;16.33;51.44;97846.53;5087996;28;20553;-64
2021/09/22 07:31:38;;;;;;;34.43;19.77;;;;;;;16.17;51.58;97860.66;5092934;28;20178;-65
2021/09/22 07:34:04;;;;;;;28.00;18.57;;;;;;;16.13;51.34;97856.69;5094132;28;20667;-64
2021/09/22 07:36:30;;;;;;;23.10;16.77;;;;;;;16.13;51.87;97857.50;5085601;28;20194;-64
2021/09/22 07:38:56;;;;;;;21.00;16.27;;;;;;;16.04;51.86;97861.19;5084515;28;20178;-64
2021/09/22 07:41:22;;;;;;;22.50;17.40;;;;;;;16.19;50.60;97863.13;5094286;28;20439;-63
2021/09/22 07:43:47;;;;;;;23.80;16.83;;;;;;;16.38;50.40;97862.69;5091041;28;20519;-63
2021/09/22 07:46:13;;;;;;;25.90;17.07;;;;;;;16.28;50.13;97854.16;5091644;28;20260;-64
2021/09/22 07:48:39;;;;;;;23.90;16.00;;;;;;;16.37;48.83;97853.13;5093632;28;20198;-65
2021/09/22 07:51:04;;;;;;;23.07;16.90;;;;;;;16.58;48.70;97849.03;5094122;28;20274;-65
2021/09/22 07:53:30;;;;;;;20.50;15.80;;;;;;;16.56;48.61;97857.16;5093504;28;20173;-67
2021/09/22 07:55:56;;;;;;;18.97;15.57;;;;;;;16.46;48.10;97853.06;5087712;28;20239;-64
2021/09/22 07:58:21;;;;;;;20.70;15.60;;;;;;;16.67;48.03;97857.75;5093806;28;20243;-65
2021/09/22 08:00:47;;;;;;;23.20;15.67;;;;;;;16.89;47.88;97846.34;5104406;28;20676;-65
2021/09/22 08:03:13;;;;;;;22.10;16.27;;;;;;;17.07;48.20;97853.19;5093866;28;20181;-65
2021/09/22 08:05:39;;;;;;;19.10;15.63;;;;;;;17.16;47.42;97854.75;5088528;28;20547;-65
2021/09/22 08:08:08;;;;;;;23.90;16.10;;;;;;;17.27;47.42;97856.13;5091231;28;20255;-64
2021/09/22 08:10:35;;;;;;;27.77;15.60;;;;;;;17.34;47.75;97859.72;5094132;28;20676;-65
2021/09/22 08:13:00;;;;;;;23.13;15.80;;;;;;;17.46;47.52;97859.28;5088471;28;20431;-66
2021/09/22 08:15:26;;;;;;;21.80;15.83;;;;;;;16.89;47.58;97871.97;5082747;28;20436;-64
2021/09/22 08:17:52;;;;;;;17.97;15.70;;;;;;;17.09;48.14;97863.59;5083831;28;20214;-65
2021/09/22 08:20:17;;;;;;;20.10;15.50;;;;;;;17.45;47.81;97860.28;5091664;28;20205;-65
2021/09/22 08:22:44;;;;;;;16.30;13.90;;;;;;;17.55;47.07;97865.34;5091175;28;20501;-65
2021/09/22 08:25:10;;;;;;;18.20;14.90;;;;;;;17.48;47.43;97867.88;5089808;28;20178;-65
2021/09/22 08:27:36;;;;;;;16.70;14.43;;;;;;;17.65;46.52;97864.06;5090904;28;20455;-66
2021/09/22 08:30:03;;;;;;;15.27;13.43;;;;;;;17.75;45.39;97868.28;5089587;28;20209;-65
2021/09/22 08:32:29;;;;;;;15.87;13.23;;;;;;;17.52;45.50;97873.66;5091611;28;20638;-65
2021/09/22 08:34:55;;;;;;;18.30;12.70;;;;;;;17.74;43.86;97867.44;5086648;28;20440;-65
2021/09/22 08:37:20;;;;;;;16.30;13.30;;;;;;;18.01;43.92;97867.84;5092584;28;20200;-63
2021/09/22 08:39:46;;;;;;;19.23;14.00;;;;;;;17.94;44.54;97870.38;5093175;28;20201;-64
2021/09/22 08:42:11;;;;;;;18.43;14.07;;;;;;;18.38;43.77;97873.22;5091654;28;20181;-65
2021/09/22 08:44:37;;;;;;;19.20;13.00;;;;;;;18.06;43.93;97867.28;5092985;28;20212;-66
2021/09/22 08:47:03;;;;;;;17.60;12.30;;;;;;;17.87;43.72;97869.47;5091504;28;20188;-64
2021/09/22 08:49:28;;;;;;;16.87;12.47;;;;;;;17.76;43.44;97869.94;5092396;28;20905;-66
2021/09/22 08:51:54;;;;;;;13.03;11.37;;;;;;;18.19;41.87;97861.34;5092247;28;20181;-65
2021/09/22 08:54:20;;;;;;;14.13;11.43;;;;;;;18.33;41.33;97871.13;5092659;28;20197;-65
2021/09/22 08:56:46;;;;;;;16.13;11.10;;;;;;;18.42;41.20;97866.50;5096898;28;20173;-65
2021/09/22 08:59:14;;;;;;;14.17;10.73;;;;;;;18.79;40.63;97872.63;5092712;28;20701;-65
2021/09/22 09:01:40;;;;;;;15.00;11.40;;;;;;;19.03;40.88;97870.63;5090225;28;20268;-65
2021/09/22 09:04:19;;;;;;;14.93;12.70;;;;;;;19.01;40.42;97860.22;5089118;28;20456;-66
2021/09/22 09:06:46;;;;;;;18.83;11.10;;;;;;;18.72;40.75;97867.25;5092335;28;20430;-64
2021/09/22 09:09:12;;;;;;;12.80;11.20;;;;;;;18.69;41.52;97872.13;5096716;28;20493;-65
2021/09/22 09:11:40;;;;;;;13.13;10.30;;;;;;;18.66;39.88;97867.16;5088408;28;20431;-65
2021/09/22 09:14:09;;;;;;;14.00;10.63;;;;;;;19.11;39.61;97859.06;5091142;28;20419;-65
2021/09/22 09:16:42;;;;;;;9.83;8.20;;;;;;;19.37;38.77;97866.44;5083745;28;20432;-65
2021/09/22 09:19:13;;;;;;;10.77;9.03;;;;;;;19.11;38.89;97865.22;5089090;28;20460;-65
2021/09/22 09:22:02;;;;;;;9.93;8.17;;;;;;;19.64;38.78;97866.63;5079667;28;20416;-66
2021/09/22 09:24:29;;;;;;;19.20;11.73;;;;;;;19.49;39.39;97864.88;5088437;28;20979;-66
2021/09/22 09:26:55;;;;;;;12.30;8.60;;;;;;;19.24;39.38;97869.78;5090712;28;20507;-64
2021/09/22 09:29:20;;;;;;;11.60;10.13;;;;;;;18.96;39.77;97864.44;5091610;28;20452;-65
2021/09/22 09:31:46;;;;;;;9.37;8.37;;;;;;;18.84;40.12;97867.56;5092126;28;20550;-65
2021/09/22 09:34:12;;;;;;;11.87;9.90;;;;;;;18.58;40.91;97854.88;5091002;28;20213;-66
2021/09/22 09:36:48;;;;;;;9.43;8.37;;;;;;;19.12;40.41;97853.56;5087689;28;20682;-67
2021/09/22 09:39:25;;;;;;;8.50;7.30;;;;;;;19.18;39.50;97847.47;5084352;28;20511;-65
2021/09/22 09:41:53;;;;;;;9.93;6.90;;;;;;;18.76;40.18;97849.13;5086732;28;20853;-64
2021/09/22 09:44:24;;;;;;;9.80;7.20;;;;;;;18.97;38.90;97850.16;5079071;28;20876;-65
2021/09/22 09:46:51;;;;;;;14.60;7.50;;;;;;;18.76;40.00;97849.13;5080964;28;20448;-65
2021/09/22 09:49:19;;;;;;;7.80;6.70;;;;;;;18.98;39.87;97852.59;5082931;28;20463;-64
2021/09/22 09:51:47;;;;;;;8.50;7.27;;;;;;;19.37;39.32;97847.84;5088150;28;20527;-65
2021/09/22 09:54:17;;;;;;;8.53;7.67;;;;;;;19.97;38.62;97844.75;5082728;28;20428;-65
2021/09/22 09:56:43;;;;;;;8.23;7.30;;;;;;;20.23;37.42;97837.91;5086123;28;20482;-64
2021/09/22 09:59:09;;;;;;;7.60;6.80;;;;;;;20.03;37.87;97841.31;5090691;28;20448;-66
2021/09/22 10:01:39;;;;;;;7.57;6.77;;;;;;;19.98;37.44;97843.72;5094471;28;20458;-65
2021/09/22 10:04:05;;;;;;;7.87;6.63;;;;;;;19.83;37.99;97824.38;5091483;28;20734;-67
2021/09/22 10:06:31;;;;;;;7.27;5.73;;;;;;;20.01;38.14;97823.88;5085875;28;20427;-64
2021/09/22 10:08:57;;;;;;;7.10;6.40;;;;;;;19.90;38.04;97826.09;5089954;28;20862;-65
2021/09/22 10:11:23;;;;;;;7.17;6.47;;;;;;;20.21;36.90;97824.81;5081817;28;20315;-66
2021/09/22 10:13:49;;;;;;;12.20;5.77;;;;;;;19.69;38.03;97816.34;5092208;28;20277;-67
2021/09/22 10:16:15;;;;;;;10.97;6.43;;;;;;;20.10;37.67;97812.88;5093373;28;20452;-64
2021/09/22 10:18:41;;;;;;;6.80;6.20;;;;;;;20.32;37.81;97810.09;5091420;28;20235;-65
2021/09/22 10:21:08;;;;;;;6.97;6.10;;;;;;;20.31;38.30;97804.97;5085006;28;20444;-65
2021/09/22 10:23:34;;;;;;;13.50;7.13;;;;;;;20.49;37.42;97809.72;5083092;28;20196;-66
2021/09/22 10:26:00;;;;;;;8.03;6.77;;;;;;;19.87;38.88;97807.88;5087692;28;20428;-65
2021/09/22 10:28:41;;;;;;;7.17;6.23;;;;;;;20.41;38.17;97803.53;5089636;28;20486;-65
2021/09/22 10:31:22;;;;;;;6.87;6.17;;;;;;;20.34;38.29;97797.41;5090765;28;20451;-66
2021/09/22 10:33:47;;;;;;;12.27;6.53;;;;;;;20.80;37.45;97803.03;5091497;28;20411;-66
2021/09/22 10:36:15;;;;;;;13.23;6.30;;;;;;;20.99;36.97;97809.41;5085774;28;20980;-64
2021/09/22 10:38:41;;;;;;;13.17;6.20;;;;;;;21.44;35.93;97800.75;5091064;28;20586;-66
2021/09/22 10:41:07;;;;;;;6.83;6.13;;;;;;;21.08;37.28;97800.19;5089178;28;20443;-64
2021/09/22 10:43:43;;;;;;;7.20;5.37;;;;;;;21.18;37.19;97800.59;5081158;28;20656;-65
2021/09/22 10:46:10;;;;;;;7.40;5.90;;;;;;;20.90;37.96;97800.81;5081921;28;20452;-64
2021/09/22 10:48:56;;;;;;;7.67;6.23;;;;;;;20.62;38.58;97799.09;5077281;28;20459;-65
2021/09/22 10:51:31;;;;;;;6.57;5.73;;;;;;;20.92;37.60;97790.75;5091064;28;20824;-64
2021/09/22 10:54:13;;;;;;;7.87;5.63;;;;;;;20.91;38.17;97798.94;5089250;28;20945;-65
2021/09/22 10:56:51;;;;;;;6.97;5.67;;;;;;;21.22;37.22;97793.00;5090884;28;20522;-66
2021/09/22 10:59:32;;;;;;;8.80;5.90;;;;;;;21.37;37.34;97794.63;5082841;28;20412;-64
2021/09/22 11:01:59;;;;;;;8.97;6.03;;;;;;;20.82;37.65;97798.31;5088464;28;20476;-66
2021/09/22 11:04:25;;;;;;;7.20;6.23;;;;;;;21.31;37.21;97791.75;5093820;28;20427;-65
2021/09/22 11:06:53;;;;;;;6.90;6.20;;;;;;;20.85;37.66;97790.78;5089000;28;20416;-64
2021/09/22 11:09:19;;;;;;;11.10;5.30;;;;;;;21.08;37.82;97786.03;5090543;28;20669;-65
2021/09/22 11:12:00;;;;;;;6.63;5.43;;;;;;;20.89;38.81;97783.19;5091953;28;20423;-64
2021/09/22 11:14:41;;;;;;;5.23;4.73;;;;;;;21.22;37.81;97777.00;5091156;28;20524;-65
2021/09/22 11:17:26;;;;;;;5.00;4.50;;;;;;;21.72;36.78;97771.19;5072753;28;20434;-64